Flight Track Log - Related Links

Times and Time Zones

All times are in EDT time to prevent confusion due to time zone crossing. See the UAL3272 flight status page for this flight to view local times or setup timezone preferences in your user account.

Time Position Orientation Groundspeed Altitude Reporting Facility
EDT Latitude Longitude Course Direction KTS MPH feet Rate Location/Type
Thu 05:53:48 AM 41.7061 -71.4392 256° West 155 178 600  Level Boston Center
Thu 05:54:56 AM 41.6922 -71.5117 256° West 173 199 2,700 1,734 Climbing Boston Center
Thu 05:55:56 AM 41.7156 -71.5697 298° West 196 226 4,300 1,800 Climbing Boston Center
Thu 05:56:56 AM 41.7703 -71.6328 319° Northwest 222 255 6,300 2,300 Climbing Boston Center
Thu 05:57:56 AM 41.8311 -71.7044 319° Northwest 265 305 8,900 2,000 Climbing Boston Center
Thu 05:58:56 AM 41.8669 -71.7878 300° West 275 316 10,300 1,100 Climbing Boston Center
Thu 05:59:56 AM 41.9136 -71.9100 297° West 311 358 11,100 1,250 Climbing Boston Center
Thu 06:00:56 AM 41.9558 -72.0325 295° West 360 414 12,800 1,550 Climbing Boston Center
Thu 06:01:56 AM 41.9958 -72.1411 296° West 360 414 14,200 1,500 Climbing Boston Center
Thu 06:02:56 AM 42.0461 -72.2753 297° West 360 414 15,800 1,300 Climbing Boston Center
Thu 06:03:56 AM 42.0856 -72.3814 297° West 360 414 16,800 1,050 Climbing Boston Center
Thu 06:04:56 AM 42.1356 -72.5242 295° West 365 420 17,900 800 Climbing Boston Center
Thu 06:05:56 AM 42.1794 -72.6389 297° West 375 432 18,400 800 Climbing Boston Center
Thu 06:06:56 AM 42.2289 -72.7850 295° West 386 444 19,500 1,050 Climbing Boston Center
Thu 06:07:56 AM 42.2722 -72.9228 293° West 386 444 20,500 1,100 Climbing Boston Center
Thu 06:08:56 AM 42.3133 -73.0661 291° West 398 458 21,700 1,100 Climbing Boston Center
Thu 06:09:56 AM 42.3542 -73.1817 296° West 397 457 22,700 1,250 Climbing Boston Center
Thu 06:10:56 AM 42.3822 -73.3564 282° West 412 474 24,200 1,350 Climbing Boston Center
Thu 06:11:56 AM 42.4058 -73.5000 283° West 417 480 25,400 1,250 Climbing Boston Center
Thu 06:12:56 AM 42.4272 -73.6467 281° West 410 472 26,700 1,200 Climbing Boston Center
Thu 06:13:56 AM 42.4508 -73.7906 283° West 405 466 27,800 1,050 Climbing Boston Center
Thu 06:14:56 AM 42.4719 -73.9347 281° West 400 460 28,800 950 Climbing Boston Center
Thu 06:15:56 AM 42.4928 -74.0789 281° West 395 455 29,700 950 Climbing Boston Center
Thu 06:16:56 AM 42.5156 -74.2286 282° West 395 455 30,700 1,000 Climbing Boston Center
Thu 06:17:56 AM 42.5361 -74.3758 281° West 395 455 31,700 650 Climbing Boston Center
Thu 06:18:56 AM 42.5564 -74.5286 280° West 400 460 32,000 150 Climbing Boston Center
Thu 06:19:56 AM 42.5825 -74.6903 282° West 419 482 32,000  Level Boston Center
Thu 06:20:56 AM 42.6039 -74.8575 280° West 441 507 32,000  Level Boston Center
Thu 06:21:56 AM 42.6294 -75.0278 282° West 453 521 32,000  Level Boston Center
Thu 06:22:56 AM 42.6525 -75.1983 280° West 453 521 32,000  Level Boston Center
Thu 06:23:56 AM 42.6756 -75.3631 281° West 448 516 32,000  Level Boston Center
Thu 06:24:56 AM 42.6983 -75.5253 281° West 448 516 32,000  Level Boston Center
Thu 06:25:56 AM 42.7206 -75.6961 280° West 448 516 32,000  Level Boston Center
Thu 06:27:59 AM 42.7625 -76.0381 280° West 462 532 32,000  Level Cleveland Center
Thu 06:28:59 AM 42.7836 -76.2006 280° West 455 524 32,000  Level Cleveland Center
Thu 06:29:59 AM 42.8061 -76.3633 281° West 455 524 32,000  Level Cleveland Center
Thu 06:30:59 AM 42.8269 -76.5317 280° West 455 524 32,000  Level Cleveland Center
Thu 06:31:59 AM 42.8492 -76.6947 281° West 450 518 32,000  Level Cleveland Center
Thu 06:32:59 AM 42.8667 -76.8436 279° West 444 511 32,000  Level Cleveland Center
Thu 06:33:59 AM 42.8864 -77.0069 279° West 444 511 32,000  Level Cleveland Center
Thu 06:34:59 AM 42.8472 -77.1622 251° West 431 496 32,000  Level Cleveland Center
Thu 06:35:59 AM 42.7847 -77.3042 239° Southwest 421 484 32,000  Level Cleveland Center
Thu 06:36:59 AM 42.7239 -77.4458 240° Southwest 426 490 32,000  Level Cleveland Center
Thu 06:37:59 AM 42.6572 -77.6044 240° Southwest 439 505 32,000  Level Cleveland Center
Thu 06:38:59 AM 42.5922 -77.7458 238° Southwest 451 519 32,000  Level Cleveland Center
Thu 06:39:59 AM 42.5308 -77.8894 240° Southwest 451 519 32,000  Level Cleveland Center
Thu 06:40:59 AM 42.4717 -78.0300 240° Southwest 451 519 32,000  Level Cleveland Center
Thu 06:41:59 AM 42.4100 -78.1675 239° Southwest 446 513 32,000  Level Cleveland Center
Thu 06:42:59 AM 42.3481 -78.3075 239° Southwest 441 507 32,000  Level Cleveland Center
Thu 06:43:59 AM 42.2861 -78.4444 239° Southwest 436 502 32,000  Level Cleveland Center
Thu 06:44:59 AM 42.2261 -78.5839 240° Southwest 436 502 32,000  Level Cleveland Center
Thu 06:45:59 AM 42.1639 -78.7231 239° Southwest 436 502 32,000  Level Cleveland Center
Thu 06:46:59 AM 42.1075 -78.8619 241° Southwest 436 502 32,000  Level Cleveland Center
Thu 06:47:59 AM 42.0703 -79.0139 252° West 431 496 32,000  Level Cleveland Center
Thu 06:48:59 AM 42.0325 -79.1714 252° West 431 496 32,000 -650 Level Cleveland Center
Thu 06:49:59 AM 41.9947 -79.3203 251° West 437 503 30,700 -1,400 Descending Cleveland Center
Thu 06:50:59 AM 41.9608 -79.4550 251° West 425 489 29,200 -1,450 Descending Cleveland Center
Thu 06:51:59 AM 41.9244 -79.6064 252° West 425 489 27,800 -1,300 Descending Cleveland Center
Thu 06:52:59 AM 41.8800 -79.7772 251° West 431 496 26,600 -900 Descending Cleveland Center
Thu 06:53:59 AM 41.8414 -79.9367 252° West 447 514 26,000 -300 Descending Cleveland Center
Thu 06:54:59 AM 41.8006 -80.0903 250° West 447 514 26,000 -150 Level Cleveland Center
Thu 06:55:59 AM 41.7594 -80.2492 251° West 447 514 25,700 -5,500 Descending Cleveland Center
Thu 06:56:59 AM 41.7181 -80.4050 250° West 442 509 15,000 -2,850 Descending Cleveland Center
Thu 06:57:59 AM 41.6786 -80.5581 251° West 437 503 20,000 1,250 Climbing Cleveland Center
Thu 06:58:59 AM 41.6411 -80.6969 250° West 422 486 17,500 -2,150 Descending Cleveland Center
Thu 06:59:59 AM 41.6033 -80.8414 251° West 417 480 15,700 -1,722 Descending Cleveland Center
Thu 07:00:47 AM 41.5758 -80.9411 250° West 357 411 14,400 -2,450 Descending Cleveland Center
Thu 07:01:59 AM 41.5378 -81.0797 250° West 362 417 10,800 -1,955 Descending Cleveland Center
Thu 07:02:59 AM 41.5122 -81.1931 253° West 339 390 10,100 -550 Descending Cleveland Center
Thu 07:03:59 AM 41.5011 -81.3039 262° West 315 362 9,700 -907 Descending Cleveland Center
Thu 07:04:25 AM 41.4986 -81.3622 267° West 295 339 8,800 -1,700 Descending Cleveland Center
Thu 07:04:59 AM 41.4964 -81.4119 267° West 303 349 8,000 -1,700 Descending Cleveland Center
Thu 07:05:25 AM 41.4958 -81.4647 269° West 282 325 7,100 -1,600 Descending Cleveland Center
Thu 07:05:59 AM 41.4956 -81.5147 270° West 285 328 6,400 -1,791 Descending Cleveland Center
Thu 07:06:32 AM 41.4969 -81.5811 272° West 271 312 5,100 -1,700 Descending Cleveland Center
Thu 07:06:59 AM 41.4947 -81.6144 265° West 274 315 4,700 -1,636 Descending Cleveland Center
Thu 07:07:27 AM 41.4922 -81.6614 266° West 254 292 3,600 -1,600 Descending Cleveland Center
Thu 07:07:59 AM 41.4939 -81.7031 273° West 255 293 3,100 -818 Descending Cleveland Center
Thu 07:08:33 AM 41.4767 -81.7444 241° Southwest 199 229 2,700 -700 Descending Cleveland Center
Thu 07:08:59 AM 41.4639 -81.7636 228° Southwest 211 243 2,400 -984 Descending Cleveland Center
Thu 07:09:34 AM 41.4450 -81.7936 230° Southwest 135 155 1,700 -800 Descending Cleveland Center
Thu 07:09:59 AM 41.4364 -81.8017 215° Southwest 167 192 1,600 -419 Descending Cleveland Center
Thu 07:10:17 AM 41.4281 -81.8183 236° Southwest 126 145 1,400 -667 Descending Cleveland Center
Thu 07:12:00 AM 41.4000 -81.8500 252° West  Level FlightAware Approximate
Thu 07:19:00 AM 41.4094 -81.8547 252° West  Level Estimated

Login

Don't have an account? Register now (free) for customized features, flight alerts, and more!